Погода Малое Льговона 2 недели

Тверская область, Россия

26 мая-08 июня
  • 26мая
    Сегодня
    +5°
    +21°
    Небольшая облачность
    ВремяПогодаТемператураВлажностьДавлениеВетер, м/сВероятность осадков
    00:00Ясно и безоблачно+13°C55 %757 мм0.7 м/с2 %
    03:00Ясно и безоблачно+10°C68 %757 мм0.3 м/с2 %
    06:00Ясно и безоблачно+13°C76 %757 мм1.0 м/с2 %
    09:00Пасмурно, сплошная облачность+18°C73 %758 мм1.5 м/с8 %
    12:00Облачно с прояснениями+20°C64 %758 мм2.4 м/с40 %
    15:00Небольшая облачность+21°C47 %758 мм2.4 м/с27 %
    18:00Ясно и безоблачно+20°C36 %759 мм2.2 м/с7 %
    21:00Ясно и безоблачно+13°C52 %759 мм0.6 м/с2 %
  • 27мая
    Понедельник
    +8°
    +23°
    Практически безоблачно
    ВремяПогодаТемператураВлажностьДавлениеВетер, м/сВероятность осадков
    00:00Ясно и безоблачно+8°C65 %760 мм0.3 м/с2 %
    03:00Ясно и безоблачно+5°C60 %761 мм0.3 м/с2 %
    06:00Ясно и безоблачно+10°C58 %762 мм0.8 м/с2 %
    09:00Ясно и безоблачно+17°C42 %762 мм1.1 м/с2 %
    12:00Небольшая облачность+21°C39 %761 мм1.7 м/с2 %
    15:00Практически безоблачно+22°C37 %760 мм1.5 м/с2 %
    18:00Ясно и безоблачно+23°C39 %759 мм1.5 м/с2 %
    21:00Ясно и безоблачно+15°C51 %758 мм0.4 м/с2 %
  • 28мая
    Вторник
    +12°
    +26°
    Практически безоблачно
    ВремяПогодаТемператураВлажностьДавлениеВетер, м/сВероятность осадков
    00:00Ясно и безоблачно+9°C59 %758 мм0.3 м/с2 %
    03:00Ясно и безоблачно+9°C69 %758 мм0.5 м/с2 %
    06:00Ясно и безоблачно+12°C69 %758 мм0.9 м/с2 %
    09:00Ясно и безоблачно+21°C50 %757 мм1.2 м/с2 %
    12:00Небольшая облачность+25°C35 %757 мм1.9 м/с2 %
    15:00Практически безоблачно+25°C29 %756 мм1.6 м/с2 %
    18:00Ясно и безоблачно+26°C33 %754 мм1.3 м/с2 %
    21:00Ясно и безоблачно+18°C50 %754 мм0.7 м/с2 %
  • 29мая
    Среда
    +12°
    +28°
    Небольшая облачность
    ВремяПогодаТемператураВлажностьДавлениеВетер, м/сВероятность осадков
    00:00Ясно и безоблачно+13°C62 %754 мм0.2 м/с2 %
    03:00Практически безоблачно+14°C75 %754 мм0.4 м/с2 %
    06:00Ясно и безоблачно+16°C72 %753 мм0.7 м/с2 %
    09:00Ясно и безоблачно+23°C51 %753 мм0.9 м/с2 %
    12:00Практически безоблачно+27°C33 %753 мм1.6 м/с14 %
    15:00Небольшая облачность+27°C32 %752 мм1.7 м/с22 %
    18:00Практически безоблачно+26°C35 %751 мм1.4 м/с22 %
    21:00Ясно и безоблачно+19°C57 %750 мм0.1 м/с3 %
  • 30мая
    Четверг
    +11°
    +27°
    Небольшая облачность
    ВремяПогодаТемператураВлажностьДавлениеВетер, м/сВероятность осадков
    00:00Ясно и безоблачно+15°C73 %750 мм0.5 м/с2 %
    03:00Ясно и безоблачно+14°C87 %750 мм0.3 м/с2 %
    06:00Ясно и безоблачно+16°C84 %750 мм0.6 м/с2 %
    09:00Ясно и безоблачно+23°C57 %750 мм0.8 м/с3 %
    12:00Практически безоблачно+26°C44 %750 мм1.4 м/с34 %
    15:00Небольшая облачность+26°C38 %749 мм1.4 м/с45 %
    18:00Небольшая облачность, возможен дождь с грозой+25°C55 %749 мм1.3 м/с57 %
    21:00Практически безоблачно+19°C70 %749 мм0.1 м/с13 %
Мы используем cookies
Соглашаюсь